sensor_id;sensor_type;location;lat;lon;timestamp;temperature;humidity
10541;DHT22;5318;50.844;4.272;2022-08-01T00:02:00;23.40;99.90
10541;DHT22;5318;50.844;4.272;2022-08-01T00:04:27;23.50;99.90
10541;DHT22;5318;50.844;4.272;2022-08-01T00:06:53;23.50;99.90
10541;DHT22;5318;50.844;4.272;2022-08-01T00:09:21;23.20;99.90
10541;DHT22;5318;50.844;4.272;2022-08-01T00:11:47;23.10;99.90
10541;DHT22;5318;50.844;4.272;2022-08-01T00:14:14;23.30;99.90
10541;DHT22;5318;50.844;4.272;2022-08-01T00:16:40;23.50;99.90
10541;DHT22;5318;50.844;4.272;2022-08-01T00:19:07;23.30;99.90
10541;DHT22;5318;50.844;4.272;2022-08-01T00:21:33;23.10;99.90
10541;DHT22;5318;50.844;4.272;2022-08-01T00:24:00;23.00;99.90
10541;DHT22;5318;50.844;4.272;2022-08-01T00:26:27;23.30;99.90
10541;DHT22;5318;50.844;4.272;2022-08-01T00:28:53;23.10;99.90
10541;DHT22;5318;50.844;4.272;2022-08-01T00:31:20;23.30;99.90
10541;DHT22;5318;50.844;4.272;2022-08-01T00:33:47;23.10;99.90
10541;DHT22;5318;50.844;4.272;2022-08-01T00:36:13;23.10;99.90
10541;DHT22;5318;50.844;4.272;2022-08-01T00:38:40;23.30;99.90
10541;DHT22;5318;50.844;4.272;2022-08-01T00:41:07;23.40;99.90
10541;DHT22;5318;50.844;4.272;2022-08-01T00:43:33;23.40;99.90
10541;DHT22;5318;50.844;4.272;2022-08-01T00:46:00;23.40;99.90
10541;DHT22;5318;50.844;4.272;2022-08-01T00:48:26;23.40;99.90
10541;DHT22;5318;50.844;4.272;2022-08-01T00:50:53;23.10;99.90
10541;DHT22;5318;50.844;4.272;2022-08-01T00:53:19;23.00;99.90
10541;DHT22;5318;50.844;4.272;2022-08-01T00:55:46;23.30;99.90
10541;DHT22;5318;50.844;4.272;2022-08-01T00:58:12;23.40;99.90
10541;DHT22;5318;50.844;4.272;2022-08-01T01:00:40;23.60;99.90
10541;DHT22;5318;50.844;4.272;2022-08-01T01:03:06;23.50;99.90
10541;DHT22;5318;50.844;4.272;2022-08-01T01:05:34;23.40;99.90
10541;DHT22;5318;50.844;4.272;2022-08-01T01:08:02;23.40;99.90
10541;DHT22;5318;50.844;4.272;2022-08-01T01:10:32;23.10;99.90
10541;DHT22;5318;50.844;4.272;2022-08-01T01:15:51;23.30;99.90
10541;DHT22;5318;50.844;4.272;2022-08-01T01:18:23;23.30;99.90
10541;DHT22;5318;50.844;4.272;2022-08-01T01:23:50;23.30;99.90
10541;DHT22;5318;50.844;4.272;2022-08-01T01:29:30;23.00;99.90
10541;DHT22;5318;50.844;4.272;2022-08-01T01:31:59;23.00;99.90
10541;DHT22;5318;50.844;4.272;2022-08-01T01:34:24;23.00;99.90
10541;DHT22;5318;50.844;4.272;2022-08-01T01:36:51;22.90;99.90
10541;DHT22;5318;50.844;4.272;2022-08-01T01:39:17;23.00;99.90
10541;DHT22;5318;50.844;4.272;2022-08-01T01:41:44;22.90;99.90
10541;DHT22;5318;50.844;4.272;2022-08-01T01:44:10;22.90;99.90
10541;DHT22;5318;50.844;4.272;2022-08-01T01:46:36;23.00;99.90
10541;DHT22;5318;50.844;4.272;2022-08-01T01:49:03;23.00;99.90
10541;DHT22;5318;50.844;4.272;2022-08-01T01:51:29;23.10;99.90
10541;DHT22;5318;50.844;4.272;2022-08-01T01:53:56;23.10;99.90
10541;DHT22;5318;50.844;4.272;2022-08-01T01:56:23;23.00;99.90
10541;DHT22;5318;50.844;4.272;2022-08-01T01:58:51;23.10;99.90
10541;DHT22;5318;50.844;4.272;2022-08-01T02:01:16;23.10;99.90
10541;DHT22;5318;50.844;4.272;2022-08-01T02:03:42;23.20;99.90
10541;DHT22;5318;50.844;4.272;2022-08-01T02:06:12;22.90;99.90
10541;DHT22;5318;50.844;4.272;2022-08-01T02:08:36;22.90;99.90
10541;DHT22;5318;50.844;4.272;2022-08-01T02:11:03;23.00;99.90
10541;DHT22;5318;50.844;4.272;2022-08-01T02:13:30;22.90;99.90
10541;DHT22;5318;50.844;4.272;2022-08-01T02:15:56;22.90;99.90
10541;DHT22;5318;50.844;4.272;2022-08-01T02:18:22;22.80;99.90
10541;DHT22;5318;50.844;4.272;2022-08-01T02:20:49;22.80;99.90
10541;DHT22;5318;50.844;4.272;2022-08-01T02:23:15;22.90;99.90
10541;DHT22;5318;50.844;4.272;2022-08-01T02:25:43;22.90;99.90
10541;DHT22;5318;50.844;4.272;2022-08-01T02:30:38;23.10;99.90
10541;DHT22;5318;50.844;4.272;2022-08-01T02:33:17;22.70;99.90
10541;DHT22;5318;50.844;4.272;2022-08-01T02:35:43;23.00;99.90
10541;DHT22;5318;50.844;4.272;2022-08-01T02:38:10;23.10;99.90
10541;DHT22;5318;50.844;4.272;2022-08-01T02:40:37;23.10;99.90
10541;DHT22;5318;50.844;4.272;2022-08-01T02:43:03;23.10;99.90
10541;DHT22;5318;50.844;4.272;2022-08-01T02:45:29;23.10;99.90
10541;DHT22;5318;50.844;4.272;2022-08-01T02:47:57;23.20;99.90
10541;DHT22;5318;50.844;4.272;2022-08-01T02:50:22;23.10;99.90
10541;DHT22;5318;50.844;4.272;2022-08-01T02:52:49;23.00;99.90
10541;DHT22;5318;50.844;4.272;2022-08-01T02:55:15;23.00;99.90
10541;DHT22;5318;50.844;4.272;2022-08-01T02:57:42;23.10;99.90
10541;DHT22;5318;50.844;4.272;2022-08-01T03:00:08;23.10;99.90
10541;DHT22;5318;50.844;4.272;2022-08-01T03:02:35;22.90;99.90
10541;DHT22;5318;50.844;4.272;2022-08-01T03:05:02;22.90;99.90
10541;DHT22;5318;50.844;4.272;2022-08-01T03:07:28;22.70;99.90
10541;DHT22;5318;50.844;4.272;2022-08-01T03:09:55;22.70;99.90
10541;DHT22;5318;50.844;4.272;2022-08-01T03:12:22;22.80;99.90
10541;DHT22;5318;50.844;4.272;2022-08-01T03:14:48;22.70;99.90
10541;DHT22;5318;50.844;4.272;2022-08-01T03:17:14;22.80;99.90
10541;DHT22;5318;50.844;4.272;2022-08-01T03:19:41;22.50;99.90
10541;DHT22;5318;50.844;4.272;2022-08-01T03:22:08;22.60;99.90
10541;DHT22;5318;50.844;4.272;2022-08-01T03:24:35;22.50;99.90
10541;DHT22;5318;50.844;4.272;2022-08-01T03:27:02;22.50;99.90
10541;DHT22;5318;50.844;4.272;2022-08-01T03:29:28;22.50;99.90
10541;DHT22;5318;50.844;4.272;2022-08-01T03:31:54;22.50;99.90
10541;DHT22;5318;50.844;4.272;2022-08-01T03:34:21;22.10;99.90
10541;DHT22;5318;50.844;4.272;2022-08-01T03:39:14;22.20;99.90
10541;DHT22;5318;50.844;4.272;2022-08-01T03:41:41;22.20;99.90
10541;DHT22;5318;50.844;4.272;2022-08-01T03:44:11;22.40;99.90
10541;DHT22;5318;50.844;4.272;2022-08-01T03:46:40;22.50;99.90
10541;DHT22;5318;50.844;4.272;2022-08-01T03:49:04;22.60;99.90
10541;DHT22;5318;50.844;4.272;2022-08-01T03:51:29;22.60;99.90
10541;DHT22;5318;50.844;4.272;2022-08-01T03:53:56;22.70;99.90
10541;DHT22;5318;50.844;4.272;2022-08-01T03:56:23;22.60;99.90
10541;DHT22;5318;50.844;4.272;2022-08-01T03:58:49;22.60;99.90
10541;DHT22;5318;50.844;4.272;2022-08-01T04:01:16;22.60;99.90
10541;DHT22;5318;50.844;4.272;2022-08-01T04:03:42;22.20;99.90
10541;DHT22;5318;50.844;4.272;2022-08-01T04:06:09;22.30;99.90
10541;DHT22;5318;50.844;4.272;2022-08-01T04:08:39;22.40;99.90
10541;DHT22;5318;50.844;4.272;2022-08-01T04:11:05;22.40;99.90
10541;DHT22;5318;50.844;4.272;2022-08-01T04:13:32;22.50;99.90
10541;DHT22;5318;50.844;4.272;2022-08-01T04:15:59;22.40;99.90
10541;DHT22;5318;50.844;4.272;2022-08-01T04:18:25;22.50;99.90
10541;DHT22;5318;50.844;4.272;2022-08-01T04:20:52;22.50;99.90
10541;DHT22;5318;50.844;4.272;2022-08-01T04:23:19;22.40;99.90
10541;DHT22;5318;50.844;4.272;2022-08-01T04:25:45;22.30;99.90
10541;DHT22;5318;50.844;4.272;2022-08-01T04:28:12;22.40;99.90
10541;DHT22;5318;50.844;4.272;2022-08-01T04:30:38;22.10;99.90
10541;DHT22;5318;50.844;4.272;2022-08-01T04:33:04;22.40;99.90
10541;DHT22;5318;50.844;4.272;2022-08-01T04:35:31;22.50;99.90
10541;DHT22;5318;50.844;4.272;2022-08-01T04:37:58;22.50;99.90
10541;DHT22;5318;50.844;4.272;2022-08-01T04:40:25;22.50;99.90
10541;DHT22;5318;50.844;4.272;2022-08-01T04:42:51;22.50;99.90
10541;DHT22;5318;50.844;4.272;2022-08-01T04:45:18;22.50;99.90
10541;DHT22;5318;50.844;4.272;2022-08-01T04:47:44;22.40;99.90
10541;DHT22;5318;50.844;4.272;2022-08-01T04:50:11;22.40;99.90
10541;DHT22;5318;50.844;4.272;2022-08-01T04:52:37;22.50;99.90
10541;DHT22;5318;50.844;4.272;2022-08-01T04:55:04;22.50;99.90
10541;DHT22;5318;50.844;4.272;2022-08-01T04:57:31;22.50;99.90
10541;DHT22;5318;50.844;4.272;2022-08-01T04:59:57;22.50;99.90
10541;DHT22;5318;50.844;4.272;2022-08-01T05:02:24;22.50;99.90
10541;DHT22;5318;50.844;4.272;2022-08-01T05:04:50;22.60;99.90
10541;DHT22;5318;50.844;4.272;2022-08-01T05:07:17;22.60;99.90
10541;DHT22;5318;50.844;4.272;2022-08-01T05:09:43;22.30;99.90
10541;DHT22;5318;50.844;4.272;2022-08-01T05:12:10;22.60;99.90
10541;DHT22;5318;50.844;4.272;2022-08-01T05:14:37;22.70;99.90
10541;DHT22;5318;50.844;4.272;2022-08-01T05:17:04;22.70;99.90
10541;DHT22;5318;50.844;4.272;2022-08-01T05:19:30;22.70;99.90
10541;DHT22;5318;50.844;4.272;2022-08-01T05:21:56;22.70;99.90
10541;DHT22;5318;50.844;4.272;2022-08-01T05:24:23;22.70;99.90
10541;DHT22;5318;50.844;4.272;2022-08-01T05:26:49;22.70;99.90
10541;DHT22;5318;50.844;4.272;2022-08-01T05:29:16;22.40;99.90
10541;DHT22;5318;50.844;4.272;2022-08-01T05:31:43;22.80;99.90
10541;DHT22;5318;50.844;4.272;2022-08-01T05:34:10;22.80;99.90
10541;DHT22;5318;50.844;4.272;2022-08-01T05:36:36;22.90;99.90
10541;DHT22;5318;50.844;4.272;2022-08-01T05:39:03;22.60;99.90
10541;DHT22;5318;50.844;4.272;2022-08-01T05:41:29;22.70;99.90
10541;DHT22;5318;50.844;4.272;2022-08-01T05:43:56;22.80;99.90
10541;DHT22;5318;50.844;4.272;2022-08-01T05:46:23;23.10;99.90
10541;DHT22;5318;50.844;4.272;2022-08-01T05:48:50;23.10;99.90
10541;DHT22;5318;50.844;4.272;2022-08-01T05:51:16;23.20;99.90
10541;DHT22;5318;50.844;4.272;2022-08-01T05:53:43;23.00;99.90
10541;DHT22;5318;50.844;4.272;2022-08-01T05:56:09;23.20;99.90
10541;DHT22;5318;50.844;4.272;2022-08-01T05:58:36;23.30;99.90
10541;DHT22;5318;50.844;4.272;2022-08-01T06:01:02;23.30;99.90
10541;DHT22;5318;50.844;4.272;2022-08-01T06:03:29;23.10;99.90
10541;DHT22;5318;50.844;4.272;2022-08-01T06:05:56;23.10;99.90
10541;DHT22;5318;50.844;4.272;2022-08-01T06:08:23;23.50;99.90
10541;DHT22;5318;50.844;4.272;2022-08-01T06:10:49;23.50;99.90
10541;DHT22;5318;50.844;4.272;2022-08-01T06:13:16;23.60;99.90
10541;DHT22;5318;50.844;4.272;2022-08-01T06:15:42;23.60;99.90
10541;DHT22;5318;50.844;4.272;2022-08-01T06:18:09;23.60;99.90
10541;DHT22;5318;50.844;4.272;2022-08-01T06:20:36;23.60;99.90
10541;DHT22;5318;50.844;4.272;2022-08-01T06:23:02;23.70;99.90
10541;DHT22;5318;50.844;4.272;2022-08-01T06:25:29;23.90;99.90
10541;DHT22;5318;50.844;4.272;2022-08-01T06:27:55;23.90;99.90
10541;DHT22;5318;50.844;4.272;2022-08-01T06:30:22;24.10;99.90
10541;DHT22;5318;50.844;4.272;2022-08-01T06:32:49;24.50;99.90
10541;DHT22;5318;50.844;4.272;2022-08-01T06:35:16;24.50;99.90
10541;DHT22;5318;50.844;4.272;2022-08-01T06:37:42;24.80;99.90
10541;DHT22;5318;50.844;4.272;2022-08-01T06:40:09;24.90;99.90
10541;DHT22;5318;50.844;4.272;2022-08-01T06:42:36;24.90;99.90
10541;DHT22;5318;50.844;4.272;2022-08-01T06:45:06;24.80;99.90
10541;DHT22;5318;50.844;4.272;2022-08-01T06:47:32;24.80;99.90
10541;DHT22;5318;50.844;4.272;2022-08-01T06:49:58;24.90;99.90
10541;DHT22;5318;50.844;4.272;2022-08-01T06:52:25;24.90;99.90
10541;DHT22;5318;50.844;4.272;2022-08-01T06:54:52;25.00;99.90
10541;DHT22;5318;50.844;4.272;2022-08-01T06:57:18;24.90;99.90
10541;DHT22;5318;50.844;4.272;2022-08-01T06:59:45;24.80;99.90
10541;DHT22;5318;50.844;4.272;2022-08-01T07:02:11;24.80;99.90
10541;DHT22;5318;50.844;4.272;2022-08-01T07:04:38;24.70;99.90
10541;DHT22;5318;50.844;4.272;2022-08-01T07:07:04;24.70;99.90
10541;DHT22;5318;50.844;4.272;2022-08-01T07:09:31;24.60;99.90
10541;DHT22;5318;50.844;4.272;2022-08-01T07:11:58;24.50;99.90
10541;DHT22;5318;50.844;4.272;2022-08-01T07:14:24;24.30;99.90
10541;DHT22;5318;50.844;4.272;2022-08-01T07:16:51;24.50;99.90
10541;DHT22;5318;50.844;4.272;2022-08-01T07:19:17;24.40;99.90
10541;DHT22;5318;50.844;4.272;2022-08-01T07:21:44;24.70;99.90
10541;DHT22;5318;50.844;4.272;2022-08-01T07:24:13;24.80;99.90
10541;DHT22;5318;50.844;4.272;2022-08-01T07:26:40;24.90;99.90
10541;DHT22;5318;50.844;4.272;2022-08-01T07:29:03;25.20;99.90
10541;DHT22;5318;50.844;4.272;2022-08-01T07:31:31;25.90;99.90
10541;DHT22;5318;50.844;4.272;2022-08-01T07:33:57;25.80;99.90
10541;DHT22;5318;50.844;4.272;2022-08-01T07:36:24;26.40;99.90
10541;DHT22;5318;50.844;4.272;2022-08-01T07:38:50;26.90;99.90
10541;DHT22;5318;50.844;4.272;2022-08-01T07:41:17;27.20;99.90
10541;DHT22;5318;50.844;4.272;2022-08-01T07:43:43;27.50;99.90
10541;DHT22;5318;50.844;4.272;2022-08-01T07:46:10;27.80;99.90
10541;DHT22;5318;50.844;4.272;2022-08-01T07:48:36;28.50;99.90
10541;DHT22;5318;50.844;4.272;2022-08-01T07:51:03;29.20;99.90
10541;DHT22;5318;50.844;4.272;2022-08-01T07:53:29;30.40;99.90
10541;DHT22;5318;50.844;4.272;2022-08-01T07:55:56;32.10;99.90
10541;DHT22;5318;50.844;4.272;2022-08-01T07:58:23;33.00;99.90
10541;DHT22;5318;50.844;4.272;2022-08-01T08:00:49;33.30;99.90
10541;DHT22;5318;50.844;4.272;2022-08-01T08:03:16;33.00;99.50
10541;DHT22;5318;50.844;4.272;2022-08-01T08:05:42;32.60;99.30
10541;DHT22;5318;50.844;4.272;2022-08-01T08:08:09;32.20;99.40
10541;DHT22;5318;50.844;4.272;2022-08-01T08:10:38;31.60;99.60
10541;DHT22;5318;50.844;4.272;2022-08-01T08:13:02;31.10;99.90
10541;DHT22;5318;50.844;4.272;2022-08-01T08:15:29;30.40;99.90
10541;DHT22;5318;50.844;4.272;2022-08-01T08:17:55;30.30;99.90
10541;DHT22;5318;50.844;4.272;2022-08-01T08:20:22;30.00;99.90
10541;DHT22;5318;50.844;4.272;2022-08-01T08:22:48;29.90;99.90
10541;DHT22;5318;50.844;4.272;2022-08-01T08:25:15;29.90;99.90
10541;DHT22;5318;50.844;4.272;2022-08-01T08:27:41;30.20;99.90
10541;DHT22;5318;50.844;4.272;2022-08-01T08:30:08;30.20;99.90
10541;DHT22;5318;50.844;4.272;2022-08-01T08:32:35;30.20;99.90
10541;DHT22;5318;50.844;4.272;2022-08-01T08:35:01;30.10;99.90
10541;DHT22;5318;50.844;4.272;2022-08-01T08:37:27;30.00;99.90
10541;DHT22;5318;50.844;4.272;2022-08-01T08:39:54;29.80;99.90
10541;DHT22;5318;50.844;4.272;2022-08-01T08:42:20;29.90;99.90
10541;DHT22;5318;50.844;4.272;2022-08-01T08:44:48;31.10;99.70
10541;DHT22;5318;50.844;4.272;2022-08-01T08:47:15;31.10;99.40
10541;DHT22;5318;50.844;4.272;2022-08-01T08:49:44;31.70;98.00
10541;DHT22;5318;50.844;4.272;2022-08-01T08:52:10;32.40;96.20
10541;DHT22;5318;50.844;4.272;2022-08-01T08:54:37;33.00;94.10
10541;DHT22;5318;50.844;4.272;2022-08-01T08:57:03;33.10;93.20
10541;DHT22;5318;50.844;4.272;2022-08-01T08:59:30;33.00;93.20
10541;DHT22;5318;50.844;4.272;2022-08-01T09:01:57;32.60;93.00
10541;DHT22;5318;50.844;4.272;2022-08-01T09:04:24;32.60;93.00
10541;DHT22;5318;50.844;4.272;2022-08-01T09:06:50;32.40;93.20
10541;DHT22;5318;50.844;4.272;2022-08-01T09:09:17;32.10;93.40
10541;DHT22;5318;50.844;4.272;2022-08-01T09:11:43;31.80;93.60
10541;DHT22;5318;50.844;4.272;2022-08-01T09:14:16;31.20;94.30
10541;DHT22;5318;50.844;4.272;2022-08-01T09:16:43;30.70;95.30
10541;DHT22;5318;50.844;4.272;2022-08-01T09:19:18;30.50;95.80
10541;DHT22;5318;50.844;4.272;2022-08-01T09:21:59;30.20;96.60
10541;DHT22;5318;50.844;4.272;2022-08-01T09:24:25;30.00;97.30
10541;DHT22;5318;50.844;4.272;2022-08-01T09:26:52;30.00;97.80
10541;DHT22;5318;50.844;4.272;2022-08-01T09:29:22;31.10;96.80
10541;DHT22;5318;50.844;4.272;2022-08-01T09:31:48;35.20;91.70
10541;DHT22;5318;50.844;4.272;2022-08-01T09:34:15;35.10;91.60
10541;DHT22;5318;50.844;4.272;2022-08-01T09:36:51;36.80;86.90
10541;DHT22;5318;50.844;4.272;2022-08-01T09:39:17;38.20;83.00
10541;DHT22;5318;50.844;4.272;2022-08-01T09:41:43;39.40;79.40
10541;DHT22;5318;50.844;4.272;2022-08-01T09:44:10;39.50;75.70
10541;DHT22;5318;50.844;4.272;2022-08-01T09:46:44;38.70;72.50
10541;DHT22;5318;50.844;4.272;2022-08-01T09:49:03;37.50;72.80
10541;DHT22;5318;50.844;4.272;2022-08-01T09:51:30;36.60;74.50
10541;DHT22;5318;50.844;4.272;2022-08-01T09:53:56;36.00;75.00
10541;DHT22;5318;50.844;4.272;2022-08-01T09:56:22;35.30;76.90
10541;DHT22;5318;50.844;4.272;2022-08-01T09:58:53;34.90;79.30
10541;DHT22;5318;50.844;4.272;2022-08-01T10:01:15;34.20;80.80
10541;DHT22;5318;50.844;4.272;2022-08-01T10:03:42;33.70;82.00
10541;DHT22;5318;50.844;4.272;2022-08-01T10:06:21;33.30;83.40
10541;DHT22;5318;50.844;4.272;2022-08-01T10:08:45;32.70;85.30
10541;DHT22;5318;50.844;4.272;2022-08-01T10:11:11;32.70;85.20
10541;DHT22;5318;50.844;4.272;2022-08-01T10:13:38;32.70;84.90
10541;DHT22;5318;50.844;4.272;2022-08-01T10:16:05;32.60;83.90
10541;DHT22;5318;50.844;4.272;2022-08-01T10:18:33;32.70;83.40
10541;DHT22;5318;50.844;4.272;2022-08-01T10:20:57;32.70;81.60
10541;DHT22;5318;50.844;4.272;2022-08-01T10:23:27;32.70;82.50
10541;DHT22;5318;50.844;4.272;2022-08-01T10:25:50;32.80;81.80
10541;DHT22;5318;50.844;4.272;2022-08-01T10:28:17;33.20;81.60
10541;DHT22;5318;50.844;4.272;2022-08-01T10:30:44;33.60;82.80
10541;DHT22;5318;50.844;4.272;2022-08-01T10:33:11;33.60;82.00
10541;DHT22;5318;50.844;4.272;2022-08-01T10:35:38;33.70;80.50
10541;DHT22;5318;50.844;4.272;2022-08-01T10:38:04;33.60;81.00
10541;DHT22;5318;50.844;4.272;2022-08-01T10:40:34;33.50;80.40
10541;DHT22;5318;50.844;4.272;2022-08-01T10:42:57;33.40;81.40
10541;DHT22;5318;50.844;4.272;2022-08-01T10:45:24;33.50;81.60
10541;DHT22;5318;50.844;4.272;2022-08-01T10:50:32;33.80;81.00
10541;DHT22;5318;50.844;4.272;2022-08-01T10:53:14;34.20;78.60
10541;DHT22;5318;50.844;4.272;2022-08-01T10:58:28;34.20;76.10
10541;DHT22;5318;50.844;4.272;2022-08-01T11:01:23;33.70;77.10
10541;DHT22;5318;50.844;4.272;2022-08-01T11:03:38;33.50;79.10
10541;DHT22;5318;50.844;4.272;2022-08-01T11:06:05;33.60;80.40
10541;DHT22;5318;50.844;4.272;2022-08-01T11:08:31;33.70;80.00
10541;DHT22;5318;50.844;4.272;2022-08-01T11:11:01;33.90;79.40
10541;DHT22;5318;50.844;4.272;2022-08-01T11:16:25;33.80;76.80
10541;DHT22;5318;50.844;4.272;2022-08-01T11:18:52;33.50;78.60
10541;DHT22;5318;50.844;4.272;2022-08-01T11:21:18;33.40;78.50
10541;DHT22;5318;50.844;4.272;2022-08-01T11:23:48;33.50;79.30
10541;DHT22;5318;50.844;4.272;2022-08-01T11:26:14;33.40;79.40
10541;DHT22;5318;50.844;4.272;2022-08-01T11:28:41;33.40;78.50
10541;DHT22;5318;50.844;4.272;2022-08-01T11:38:45;33.60;76.10
10541;DHT22;5318;50.844;4.272;2022-08-01T11:41:23;33.60;76.10
10541;DHT22;5318;50.844;4.272;2022-08-01T11:49:22;33.20;77.80
10541;DHT22;5318;50.844;4.272;2022-08-01T11:51:52;33.10;78.80
10541;DHT22;5318;50.844;4.272;2022-08-01T11:54:15;33.10;77.20
10541;DHT22;5318;50.844;4.272;2022-08-01T11:56:41;32.90;77.30
10541;DHT22;5318;50.844;4.272;2022-08-01T11:59:08;32.70;77.80
10541;DHT22;5318;50.844;4.272;2022-08-01T12:01:34;32.30;79.70
10541;DHT22;5318;50.844;4.272;2022-08-01T12:04:01;32.20;79.00
10541;DHT22;5318;50.844;4.272;2022-08-01T12:06:28;32.00;78.40
10541;DHT22;5318;50.844;4.272;2022-08-01T12:08:54;31.80;79.70
10541;DHT22;5318;50.844;4.272;2022-08-01T12:11:21;31.70;80.80
10541;DHT22;5318;50.844;4.272;2022-08-01T12:13:47;31.70;81.50
10541;DHT22;5318;50.844;4.272;2022-08-01T12:16:14;31.70;81.00
10541;DHT22;5318;50.844;4.272;2022-08-01T12:18:41;32.00;80.50
10541;DHT22;5318;50.844;4.272;2022-08-01T12:21:08;32.00;79.80
10541;DHT22;5318;50.844;4.272;2022-08-01T12:23:34;32.10;79.30
10541;DHT22;5318;50.844;4.272;2022-08-01T12:26:01;32.20;79.90
10541;DHT22;5318;50.844;4.272;2022-08-01T12:28:27;32.20;79.50
10541;DHT22;5318;50.844;4.272;2022-08-01T12:30:54;32.40;78.70
10541;DHT22;5318;50.844;4.272;2022-08-01T12:33:20;32.40;79.00
10541;DHT22;5318;50.844;4.272;2022-08-01T12:35:47;32.60;76.90
10541;DHT22;5318;50.844;4.272;2022-08-01T12:38:18;32.60;76.70
10541;DHT22;5318;50.844;4.272;2022-08-01T12:40:45;32.40;77.00
10541;DHT22;5318;50.844;4.272;2022-08-01T12:43:14;32.40;77.00
10541;DHT22;5318;50.844;4.272;2022-08-01T12:45:38;32.10;76.50
10541;DHT22;5318;50.844;4.272;2022-08-01T12:48:07;31.80;77.30
10541;DHT22;5318;50.844;4.272;2022-08-01T12:50:30;31.80;78.10
10541;DHT22;5318;50.844;4.272;2022-08-01T12:52:57;31.80;78.40
10541;DHT22;5318;50.844;4.272;2022-08-01T12:55:24;31.70;75.60
10541;DHT22;5318;50.844;4.272;2022-08-01T12:57:54;31.50;76.70
10541;DHT22;5318;50.844;4.272;2022-08-01T13:00:23;31.30;77.50
10541;DHT22;5318;50.844;4.272;2022-08-01T13:02:50;31.30;78.30
10541;DHT22;5318;50.844;4.272;2022-08-01T13:05:15;31.40;77.60
10541;DHT22;5318;50.844;4.272;2022-08-01T13:07:48;31.50;77.90
10541;DHT22;5318;50.844;4.272;2022-08-01T13:10:14;31.60;78.60
10541;DHT22;5318;50.844;4.272;2022-08-01T13:12:41;31.70;78.00
10541;DHT22;5318;50.844;4.272;2022-08-01T13:15:17;31.60;78.10
10541;DHT22;5318;50.844;4.272;2022-08-01T13:17:42;31.40;77.40
10541;DHT22;5318;50.844;4.272;2022-08-01T13:20:09;31.10;79.00
10541;DHT22;5318;50.844;4.272;2022-08-01T13:22:36;30.90;78.60
10541;DHT22;5318;50.844;4.272;2022-08-01T13:25:15;30.80;80.10
10541;DHT22;5318;50.844;4.272;2022-08-01T13:27:41;30.60;79.20
10541;DHT22;5318;50.844;4.272;2022-08-01T13:30:17;30.40;80.20
10541;DHT22;5318;50.844;4.272;2022-08-01T13:32:43;30.30;80.00
10541;DHT22;5318;50.844;4.272;2022-08-01T13:35:13;30.10;79.40
10541;DHT22;5318;50.844;4.272;2022-08-01T13:37:36;29.90;79.70
10541;DHT22;5318;50.844;4.272;2022-08-01T13:40:02;29.70;80.70
10541;DHT22;5318;50.844;4.272;2022-08-01T13:42:29;29.90;82.10
10541;DHT22;5318;50.844;4.272;2022-08-01T13:44:56;30.10;80.10
10541;DHT22;5318;50.844;4.272;2022-08-01T13:47:22;30.30;78.60
10541;DHT22;5318;50.844;4.272;2022-08-01T13:49:49;30.40;77.90
10541;DHT22;5318;50.844;4.272;2022-08-01T13:52:15;30.60;77.50
10541;DHT22;5318;50.844;4.272;2022-08-01T13:54:42;30.60;77.40
10541;DHT22;5318;50.844;4.272;2022-08-01T13:57:09;30.70;78.30
10541;DHT22;5318;50.844;4.272;2022-08-01T13:59:36;30.60;77.40
10541;DHT22;5318;50.844;4.272;2022-08-01T14:02:02;30.60;77.50
10541;DHT22;5318;50.844;4.272;2022-08-01T14:04:29;30.50;78.30
10541;DHT22;5318;50.844;4.272;2022-08-01T14:06:55;30.60;78.10
10541;DHT22;5318;50.844;4.272;2022-08-01T14:09:22;30.70;78.10
10541;DHT22;5318;50.844;4.272;2022-08-01T14:11:48;30.70;78.30
10541;DHT22;5318;50.844;4.272;2022-08-01T14:14:15;30.80;77.00
10541;DHT22;5318;50.844;4.272;2022-08-01T14:16:42;30.90;76.70
10541;DHT22;5318;50.844;4.272;2022-08-01T14:19:08;30.80;77.00
10541;DHT22;5318;50.844;4.272;2022-08-01T14:21:34;30.90;78.40
10541;DHT22;5318;50.844;4.272;2022-08-01T14:24:01;31.00;76.90
10541;DHT22;5318;50.844;4.272;2022-08-01T14:26:28;31.10;76.50
10541;DHT22;5318;50.844;4.272;2022-08-01T14:28:54;30.90;75.40
10541;DHT22;5318;50.844;4.272;2022-08-01T14:31:21;30.60;76.70
10541;DHT22;5318;50.844;4.272;2022-08-01T14:33:47;30.60;76.60
10541;DHT22;5318;50.844;4.272;2022-08-01T14:36:14;30.20;77.10
10541;DHT22;5318;50.844;4.272;2022-08-01T14:38:41;30.20;77.10
10541;DHT22;5318;50.844;4.272;2022-08-01T14:41:08;30.20;76.30
10541;DHT22;5318;50.844;4.272;2022-08-01T14:43:34;30.00;76.60
10541;DHT22;5318;50.844;4.272;2022-08-01T14:46:01;29.90;76.60
10541;DHT22;5318;50.844;4.272;2022-08-01T14:48:27;29.70;77.10
10541;DHT22;5318;50.844;4.272;2022-08-01T14:50:54;29.60;76.80
10541;DHT22;5318;50.844;4.272;2022-08-01T14:53:20;29.60;76.80
10541;DHT22;5318;50.844;4.272;2022-08-01T14:55:47;29.60;77.70
10541;DHT22;5318;50.844;4.272;2022-08-01T14:58:13;29.40;78.50
10541;DHT22;5318;50.844;4.272;2022-08-01T15:00:40;29.30;78.10
10541;DHT22;5318;50.844;4.272;2022-08-01T15:03:07;29.50;76.90
10541;DHT22;5318;50.844;4.272;2022-08-01T15:05:34;29.50;76.90
10541;DHT22;5318;50.844;4.272;2022-08-01T15:08:00;29.40;77.70
10541;DHT22;5318;50.844;4.272;2022-08-01T15:10:27;29.20;78.50
10541;DHT22;5318;50.844;4.272;2022-08-01T15:12:53;29.10;79.60
10541;DHT22;5318;50.844;4.272;2022-08-01T15:15:20;29.10;79.60
10541;DHT22;5318;50.844;4.272;2022-08-01T15:17:46;29.20;80.60
10541;DHT22;5318;50.844;4.272;2022-08-01T15:20:14;29.40;78.10
10541;DHT22;5318;50.844;4.272;2022-08-01T15:22:40;29.40;78.10
10541;DHT22;5318;50.844;4.272;2022-08-01T15:25:07;29.50;78.40
10541;DHT22;5318;50.844;4.272;2022-08-01T15:27:34;29.60;76.70
10541;DHT22;5318;50.844;4.272;2022-08-01T15:30:01;29.60;76.70
10541;DHT22;5318;50.844;4.272;2022-08-01T15:32:27;29.80;76.30
10541;DHT22;5318;50.844;4.272;2022-08-01T15:34:54;29.60;77.20
10541;DHT22;5318;50.844;4.272;2022-08-01T15:37:22;29.60;76.60
10541;DHT22;5318;50.844;4.272;2022-08-01T15:39:49;29.60;75.30
10541;DHT22;5318;50.844;4.272;2022-08-01T15:42:16;29.80;76.50
10541;DHT22;5318;50.844;4.272;2022-08-01T15:44:43;29.80;76.00
10541;DHT22;5318;50.844;4.272;2022-08-01T15:47:09;29.80;76.20
10541;DHT22;5318;50.844;4.272;2022-08-01T15:49:36;29.80;76.00
10541;DHT22;5318;50.844;4.272;2022-08-01T15:52:05;29.80;76.00
10541;DHT22;5318;50.844;4.272;2022-08-01T15:54:32;29.90;75.70
10541;DHT22;5318;50.844;4.272;2022-08-01T15:56:58;29.70;77.00
10541;DHT22;5318;50.844;4.272;2022-08-01T15:59:26;30.00;76.40
10541;DHT22;5318;50.844;4.272;2022-08-01T16:01:52;29.90;76.30
10541;DHT22;5318;50.844;4.272;2022-08-01T16:04:19;30.00;76.50
10541;DHT22;5318;50.844;4.272;2022-08-01T16:06:45;30.10;75.00
10541;DHT22;5318;50.844;4.272;2022-08-01T16:09:12;30.20;77.30
10541;DHT22;5318;50.844;4.272;2022-08-01T16:11:38;30.10;75.40
10541;DHT22;5318;50.844;4.272;2022-08-01T16:14:05;30.20;74.80
10541;DHT22;5318;50.844;4.272;2022-08-01T16:16:31;30.10;74.60
10541;DHT22;5318;50.844;4.272;2022-08-01T16:18:58;29.90;74.30